KALI/ALI METAR and TAF weather

Enter ICAO airport designator
Station Type Date Time Source
KALI METAR 2018/10/19 15:53 UTC NOAA

KALI 191553Z AUTO 31009KT 4SM BR OVC003 18/18 A3014 RMK AO2 SLP203 T01830178


Station Type Date Time Source
KALI Decoded METAR 2018/10/19 15:53 UTC NOAA

ALICE INTERNATIONAL AIRPORT, TX, United States (KALI) 27-44N 098-01W 53M
Oct 19, 2018 - 11:53 AM EDT / 2018.10.19 1553 UTC
Wind: from the NW (310 degrees) at 10 MPH (9 KT):0
Visibility: 4 mile(s):0
Sky conditions: overcast
Weather: mist
Temperature: 64.9 F (18.3 C)
Dew Point: 64.0 F (17.8 C)
Relative Humidity: 96%
Pressure (altimeter): 30.14 in. Hg (1020 hPa)
ob: KALI 191553Z AUTO 31009KT 4SM BR OVC003 18/18 A3014 RMK AO2 SLP203 T01830178
cycle: 16

Station Type Date Time Source
KALI TAF 2018/10/19 13:58 UTC NOAA

TAF
AMD KALI 191258Z 1913/2012 32010KT 6SM BR VCSH OVC004
TEMPO 1913/1916 4SM BR OVC008
FM191600 34008KT 5SM -SHRA BR OVC007
FM192100 35009KT 5SM BR OVC015
TEMPO 1921/2001 3SM -RA BR OVC008


Example: see airport list